createdAt,value
2022-11-25T00:01:07.307Z,10.20
2022-11-25T00:03:35.952Z,9.88
2022-11-25T00:06:13.899Z,11.35
2022-11-25T00:08:44.350Z,7.38
2022-11-25T00:11:11.902Z,9.65
2022-11-25T00:13:42.864Z,7.93
2022-11-25T00:16:14.284Z,15.45
2022-11-25T00:18:43.675Z,5.40
2022-11-25T00:21:13.026Z,15.90
2022-11-25T00:23:39.514Z,14.32
2022-11-25T00:26:18.396Z,6.40
2022-11-25T00:28:49.953Z,8.77
2022-11-25T00:31:19.349Z,8.83
2022-11-25T00:33:48.382Z,5.80
2022-11-25T00:36:23.688Z,8.95
2022-11-25T00:38:59.287Z,8.52
2022-11-25T00:41:45.666Z,8.10
2022-11-25T00:44:32.866Z,16.05
2022-11-25T00:47:00.231Z,4.43
2022-11-25T00:49:27.077Z,12.82
2022-11-25T00:51:53.729Z,14.57
2022-11-25T00:54:22.483Z,7.72
2022-11-25T00:56:53.751Z,11.05
2022-11-25T00:59:20.319Z,10.32
2022-11-25T01:01:50.302Z,9.90
2022-11-25T01:04:17.180Z,15.57
2022-11-25T01:06:44.277Z,6.10
2022-11-25T01:09:12.210Z,4.63
2022-11-25T01:11:38.896Z,8.15
2022-11-25T01:14:05.458Z,5.70
2022-11-25T01:16:32.607Z,11.20
2022-11-25T01:19:03.566Z,9.95
2022-11-25T01:21:32.323Z,9.50
2022-11-25T01:24:01.172Z,12.10
2022-11-25T01:26:28.366Z,14.10
2022-11-25T01:29:00.359Z,7.70
2022-11-25T01:31:29.567Z,9.65
2022-11-25T01:33:59.690Z,3.75
2022-11-25T01:36:27.016Z,4.43
2022-11-25T01:38:58.537Z,13.38
2022-11-25T01:41:27.552Z,6.40
2022-11-25T01:44:05.963Z,13.35
2022-11-25T01:46:44.521Z,16.13
2022-11-25T01:49:17.741Z,16.00
2022-11-25T01:51:55.633Z,6.78
2022-11-25T01:54:28.235Z,7.55
2022-11-25T01:57:02.247Z,12.38
2022-11-25T01:59:35.302Z,9.10
2022-11-25T02:02:01.838Z,10.48
2022-11-25T02:04:33.542Z,30.13
2022-11-25T02:07:07.475Z,18.33
2022-11-25T02:09:38.513Z,8.15
2022-11-25T02:12:05.903Z,5.07
2022-11-25T02:14:34.687Z,15.05
2022-11-25T02:17:03.925Z,7.18
2022-11-25T02:19:47.149Z,22.02
2022-11-25T02:22:23.777Z,10.48
2022-11-25T02:24:57.381Z,14.15
2022-11-25T02:27:23.799Z,15.50
2022-11-25T02:29:52.091Z,15.55
2022-11-25T02:32:22.908Z,13.00
2022-11-25T02:34:49.909Z,10.02
2022-11-25T02:37:19.234Z,9.02
2022-11-25T02:39:48.556Z,10.25
2022-11-25T02:42:17.578Z,14.25
2022-11-25T02:44:46.076Z,18.40
2022-11-25T02:47:12.493Z,10.40
2022-11-25T02:49:38.863Z,13.52
2022-11-25T02:52:05.267Z,14.90
2022-11-25T02:54:31.735Z,8.95
2022-11-25T02:56:58.257Z,19.35
2022-11-25T02:59:24.677Z,11.57
2022-11-25T03:01:51.248Z,10.73
2022-11-25T03:04:17.681Z,13.82
2022-11-25T03:06:44.057Z,13.98
2022-11-25T03:09:10.508Z,14.10
2022-11-25T03:11:55.367Z,10.85
2022-11-25T03:14:21.811Z,17.00
2022-11-25T03:16:48.442Z,9.23
2022-11-25T03:19:14.804Z,17.17
2022-11-25T03:21:43.733Z,19.00
2022-11-25T03:24:10.070Z,20.17
2022-11-25T03:26:36.463Z,19.08
2022-11-25T03:29:02.876Z,17.23
2022-11-25T03:31:29.395Z,13.25
2022-11-25T03:33:56.148Z,5.82
2022-11-25T03:36:22.522Z,15.15
2022-11-25T03:38:48.921Z,13.60
2022-11-25T03:41:15.282Z,10.70
2022-11-25T03:43:44.303Z,11.10
2022-11-25T03:46:10.793Z,6.72
2022-11-25T03:48:37.215Z,4.78
2022-11-25T03:51:03.654Z,11.10
2022-11-25T03:53:30.215Z,14.38
2022-11-25T03:55:56.614Z,19.02
2022-11-25T03:58:23.038Z,6.55
2022-11-25T04:00:49.551Z,13.13
2022-11-25T04:03:15.921Z,5.45
2022-11-25T04:05:42.395Z,13.68
2022-11-25T04:08:08.858Z,9.55
2022-11-25T04:10:35.336Z,6.18
2022-11-25T04:13:04.323Z,16.45
2022-11-25T04:15:30.872Z,10.00
2022-11-25T04:17:59.405Z,8.23
2022-11-25T04:20:25.888Z,5.47
2022-11-25T04:22:52.250Z,9.90
2022-11-25T04:25:18.671Z,6.00
2022-11-25T04:27:45.470Z,12.15
2022-11-25T04:30:12.353Z,17.75
2022-11-25T04:32:39.153Z,5.95
2022-11-25T04:35:08.430Z,7.68
2022-11-25T04:37:37.249Z,7.47
2022-11-25T04:40:04.019Z,8.88
2022-11-25T04:42:36.915Z,15.38
2022-11-25T04:45:25.401Z,6.97
2022-11-25T04:47:52.144Z,4.72
2022-11-25T04:50:22.320Z,12.93
2022-11-25T04:52:48.825Z,7.57
2022-11-25T04:55:22.809Z,10.10
2022-11-25T04:57:49.165Z,8.00
2022-11-25T05:00:18.488Z,9.82
2022-11-25T05:02:44.976Z,12.48
2022-11-25T05:05:12.263Z,11.93
2022-11-25T05:07:38.890Z,19.17
2022-11-25T05:10:06.748Z,9.10
2022-11-25T05:12:33.165Z,13.55
2022-11-25T05:14:59.642Z,9.23
2022-11-25T05:17:28.423Z,10.15
2022-11-25T05:19:55.028Z,10.95
2022-11-25T05:22:24.916Z,5.57
2022-11-25T05:24:51.856Z,19.60
2022-11-25T05:27:19.269Z,10.30
2022-11-25T05:29:45.776Z,8.02
2022-11-25T05:32:12.747Z,6.70
2022-11-25T05:34:41.998Z,10.90
2022-11-25T05:37:09.871Z,7.70
2022-11-25T05:39:36.317Z,5.90
2022-11-25T05:42:06.296Z,5.95
2022-11-25T05:44:32.627Z,12.20
2022-11-25T05:46:59.010Z,5.68
2022-11-25T05:49:25.363Z,5.53
2022-11-25T05:51:54.062Z,9.93
2022-11-25T05:54:20.427Z,6.63
2022-11-25T05:56:46.869Z,19.75
2022-11-25T05:59:13.397Z,8.52
2022-11-25T06:01:39.885Z,6.68
2022-11-25T06:04:06.324Z,17.20
2022-11-25T06:06:37.666Z,7.50
2022-11-25T06:09:04.118Z,6.78
2022-11-25T06:11:32.916Z,6.15
2022-11-25T06:13:59.435Z,19.02
2022-11-25T06:16:26.281Z,12.18
2022-11-25T06:18:52.746Z,18.98
2022-11-25T06:21:19.153Z,18.08
2022-11-25T06:23:46.131Z,12.32
2022-11-25T06:26:20.633Z,13.20
2022-11-25T06:28:47.243Z,7.75
2022-11-25T06:31:20.276Z,9.10
2022-11-25T06:33:48.573Z,6.13
2022-11-25T06:36:18.292Z,7.75
2022-11-25T06:38:54.594Z,13.00
2022-11-25T06:41:22.380Z,10.55
2022-11-25T06:43:48.774Z,11.32
2022-11-25T06:46:23.099Z,11.43
2022-11-25T06:48:51.915Z,15.60
2022-11-25T06:51:18.581Z,8.88
2022-11-25T06:53:45.795Z,5.20
2022-11-25T06:56:15.653Z,12.88
2022-11-25T06:58:43.503Z,10.30
2022-11-25T07:01:16.502Z,15.10
2022-11-25T07:03:44.753Z,9.48
2022-11-25T07:06:12.821Z,10.35
2022-11-25T07:08:39.979Z,9.90
2022-11-25T07:11:11.718Z,10.00
2022-11-25T07:13:38.395Z,15.55
2022-11-25T07:16:08.106Z,11.90
2022-11-25T07:18:36.638Z,9.13
2022-11-25T07:21:09.331Z,13.32
2022-11-25T07:23:37.094Z,9.27
2022-11-25T07:26:14.775Z,20.08
2022-11-25T07:28:41.764Z,14.93
2022-11-25T07:31:24.852Z,18.67
2022-11-25T07:33:57.962Z,16.17
2022-11-25T07:36:25.759Z,35.15
2022-11-25T07:38:52.473Z,37.58
2022-11-25T07:41:21.854Z,48.50
2022-11-25T07:43:54.266Z,38.33
2022-11-25T07:48:56.147Z,18.70
2022-11-25T07:51:28.245Z,11.88
2022-11-25T07:53:56.328Z,13.15
2022-11-25T07:56:23.350Z,18.58
2022-11-25T07:58:49.828Z,17.15
2022-11-25T08:01:18.433Z,19.38
2022-11-25T08:03:46.879Z,15.95
2022-11-25T08:06:15.853Z,8.32
2022-11-25T08:08:43.383Z,12.38
2022-11-25T08:11:17.138Z,17.27
2022-11-25T08:13:49.813Z,13.15
2022-11-25T08:16:19.300Z,12.82
2022-11-25T08:18:46.545Z,7.15
2022-11-25T08:21:15.484Z,10.52
2022-11-25T08:23:47.496Z,10.75
2022-11-25T08:26:22.702Z,9.38
2022-11-25T08:28:49.638Z,6.40
2022-11-25T08:31:19.967Z,11.73
2022-11-25T08:33:47.310Z,8.02
2022-11-25T08:36:15.405Z,16.05
2022-11-25T08:38:42.684Z,12.52
2022-11-25T08:41:11.767Z,17.38
2022-11-25T08:43:41.557Z,11.20
2022-11-25T08:46:10.951Z,10.32
2022-11-25T08:48:37.824Z,7.75
2022-11-25T08:51:10.454Z,15.63
2022-11-25T08:53:38.616Z,12.85
2022-11-25T08:56:06.093Z,7.90
2022-11-25T08:58:33.335Z,8.07
2022-11-25T09:00:59.688Z,13.70
2022-11-25T09:03:26.281Z,18.52
2022-11-25T09:05:54.687Z,14.07
2022-11-25T09:08:23.621Z,14.02
2022-11-25T09:10:51.198Z,17.58
2022-11-25T09:13:17.679Z,13.60
2022-11-25T09:15:44.176Z,8.82
2022-11-25T09:18:11.130Z,17.90
2022-11-25T09:20:39.737Z,10.10
2022-11-25T09:23:08.373Z,8.32
2022-11-25T09:25:36.108Z,11.73
2022-11-25T09:28:05.641Z,14.15
2022-11-25T09:30:32.288Z,6.38
2022-11-25T09:32:58.864Z,9.82
2022-11-25T09:35:25.930Z,9.95
2022-11-25T09:37:52.470Z,9.60
2022-11-25T09:40:39.636Z,4.93
2022-11-25T09:43:58.653Z,7.38
2022-11-25T09:46:52.468Z,12.35
2022-11-25T09:49:21.699Z,12.10
2022-11-25T09:52:09.189Z,10.60
2022-11-25T09:54:59.131Z,6.00
2022-11-25T09:57:39.563Z,11.18
2022-11-25T10:00:19.591Z,3.35
2022-11-25T10:03:09.888Z,15.30
2022-11-25T10:05:47.229Z,11.77
2022-11-25T10:08:22.886Z,5.95
2022-11-25T10:10:58.776Z,9.48
2022-11-25T10:13:34.188Z,7.55
2022-11-25T10:16:07.033Z,8.88
2022-11-25T10:18:50.155Z,15.93
2022-11-25T10:21:18.874Z,9.13
2022-11-25T10:23:47.767Z,8.82
2022-11-25T10:26:17.408Z,6.32
2022-11-25T10:28:57.149Z,9.55
2022-11-25T10:31:31.180Z,5.88
2022-11-25T10:34:01.377Z,7.07
2022-11-25T10:36:33.459Z,13.10
2022-11-25T10:39:14.871Z,11.35
2022-11-25T10:41:59.489Z,11.95
2022-11-25T10:44:28.787Z,13.00
2022-11-25T10:47:32.433Z,9.93
2022-11-25T10:50:03.820Z,9.40
2022-11-25T10:52:37.521Z,30.87
2022-11-25T10:55:20.690Z,19.67
2022-11-25T10:57:47.210Z,22.80
2022-11-25T11:00:35.682Z,23.00
2022-11-25T11:03:24.479Z,17.10
2022-11-25T11:05:52.704Z,22.00
2022-11-25T11:08:25.321Z,14.50
2022-11-25T11:11:09.209Z,13.52
2022-11-25T11:13:35.723Z,13.93
2022-11-25T11:16:02.321Z,10.00
2022-11-25T11:18:37.593Z,9.48
2022-11-25T11:21:07.245Z,16.80
2022-11-25T11:23:51.752Z,22.13
2022-11-25T11:26:24.980Z,19.80
2022-11-25T11:29:12.725Z,10.43
2022-11-25T11:31:51.655Z,5.95
2022-11-25T11:34:36.788Z,9.73
2022-11-25T11:37:21.837Z,7.75
2022-11-25T11:40:16.280Z,6.22
2022-11-25T11:42:45.650Z,9.38
2022-11-25T11:45:24.271Z,11.52
2022-11-25T11:48:01.114Z,7.75
2022-11-25T11:50:38.084Z,8.60
2022-11-25T11:53:30.417Z,7.90
2022-11-25T11:59:06.702Z,15.40
2022-11-25T12:01:51.441Z,12.57
2022-11-25T12:04:42.196Z,7.15
2022-11-25T12:07:12.088Z,7.82
2022-11-25T12:09:53.896Z,10.77
2022-11-25T12:12:27.883Z,8.25
2022-11-25T12:15:04.280Z,13.15
2022-11-25T12:17:36.906Z,16.60
2022-11-25T12:20:10.389Z,9.32
2022-11-25T12:22:46.597Z,10.65
2022-11-25T12:25:31.723Z,10.07
2022-11-25T12:28:21.174Z,12.45
2022-11-25T12:31:06.032Z,10.65
2022-11-25T12:33:54.260Z,6.22
2022-11-25T12:36:31.029Z,10.70
2022-11-25T12:39:02.245Z,7.75
2022-11-25T12:41:43.654Z,6.85
2022-11-25T12:44:31.412Z,9.75
2022-11-25T12:46:58.770Z,11.68
2022-11-25T12:49:31.844Z,11.18
2022-11-25T12:52:10.332Z,13.15
2022-11-25T12:54:51.847Z,15.75
2022-11-25T12:57:50.445Z,9.50
2022-11-25T13:03:39.922Z,11.33
2022-11-25T13:06:16.334Z,14.05
2022-11-25T13:08:48.578Z,9.77
2022-11-25T13:14:12.756Z,8.68
2022-11-25T13:16:40.784Z,23.10
2022-11-25T13:19:16.200Z,6.95
2022-11-25T13:22:20.659Z,11.95
2022-11-25T13:24:47.451Z,11.57
2022-11-25T13:27:40.230Z,5.90
2022-11-25T13:30:32.577Z,6.22
2022-11-25T13:33:11.398Z,9.48
2022-11-25T13:35:49.361Z,19.23
2022-11-25T13:38:30.867Z,11.57
2022-11-25T13:41:20.160Z,11.43
2022-11-25T13:44:01.740Z,15.73
2022-11-25T13:46:42.245Z,13.88
2022-11-25T13:49:30.617Z,9.35
2022-11-25T13:52:26.370Z,10.73
2022-11-25T13:54:55.479Z,12.60
2022-11-25T13:57:27.908Z,14.05
2022-11-25T13:59:56.139Z,10.50
2022-11-25T14:02:31.098Z,12.05
2022-11-25T14:05:04.374Z,12.10
2022-11-25T14:07:40.832Z,12.68
2022-11-25T14:10:31.247Z,16.27
2022-11-25T14:13:19.317Z,14.10
2022-11-25T14:16:03.741Z,9.15
2022-11-25T14:22:23.135Z,12.13
2022-11-25T14:24:53.389Z,17.58
2022-11-25T14:27:22.450Z,12.68
2022-11-25T14:30:06.371Z,13.23
2022-11-25T14:32:47.670Z,17.35
2022-11-25T14:35:16.190Z,15.40
2022-11-25T14:37:52.026Z,11.23
2022-11-25T14:41:00.129Z,11.65
2022-11-25T14:43:29.144Z,7.82
2022-11-25T14:46:15.363Z,14.57
2022-11-25T14:48:43.685Z,6.30
2022-11-25T14:51:18.518Z,20.02
2022-11-25T14:53:48.427Z,22.30
2022-11-25T14:56:21.475Z,21.85
2022-11-25T14:58:51.599Z,17.25
2022-11-25T15:01:23.186Z,10.90
2022-11-25T15:03:52.018Z,14.90
2022-11-25T15:06:22.252Z,16.67
2022-11-25T15:08:59.404Z,15.60
2022-11-25T15:11:31.558Z,16.45
2022-11-25T15:14:03.742Z,11.10
2022-11-25T15:16:37.026Z,15.68
2022-11-25T15:19:06.432Z,12.60
2022-11-25T15:21:53.750Z,13.45
2022-11-25T15:24:48.873Z,14.20
2022-11-25T15:27:25.172Z,12.18
2022-11-25T15:29:53.538Z,12.32
2022-11-25T15:32:22.711Z,13.25
2022-11-25T15:34:50.624Z,19.40
2022-11-25T15:37:17.154Z,12.98
2022-11-25T15:39:44.063Z,12.90
2022-11-25T15:42:21.572Z,13.20
2022-11-25T15:44:54.659Z,20.10
2022-11-25T15:47:24.711Z,14.13
2022-11-25T15:50:25.629Z,14.65
2022-11-25T15:52:56.886Z,12.05
2022-11-25T15:55:38.685Z,11.05
2022-11-25T15:58:21.209Z,14.63
2022-11-25T16:01:07.493Z,14.52
2022-11-25T16:03:35.562Z,24.58
2022-11-25T16:06:02.740Z,15.25
2022-11-25T16:08:36.367Z,12.48
2022-11-25T16:11:18.250Z,8.50
2022-11-25T16:13:46.482Z,16.02
2022-11-25T16:16:24.160Z,17.40
2022-11-25T16:19:02.802Z,16.15
2022-11-25T16:21:38.704Z,15.02
2022-11-25T16:24:08.183Z,12.27
2022-11-25T16:26:50.242Z,14.23
2022-11-25T16:29:19.073Z,16.02
2022-11-25T16:31:45.822Z,13.40
2022-11-25T16:34:17.954Z,17.65
2022-11-25T16:36:44.781Z,26.67
2022-11-25T16:39:11.635Z,24.08
2022-11-25T16:41:41.032Z,24.42
2022-11-25T16:44:21.162Z,33.70
2022-11-25T16:46:47.657Z,23.13
2022-11-25T16:49:20.218Z,30.17
2022-11-25T16:51:46.769Z,25.73
2022-11-25T16:54:16.222Z,28.77
2022-11-25T16:56:43.597Z,26.95
2022-11-25T16:59:19.271Z,28.48
2022-11-25T17:01:48.927Z,22.10
2022-11-25T17:04:16.522Z,16.42
2022-11-25T17:06:50.542Z,22.13
2022-11-25T17:09:32.270Z,31.42
2022-11-25T17:12:03.394Z,19.67
2022-11-25T17:14:35.782Z,16.60
2022-11-25T17:17:04.997Z,22.67
2022-11-25T17:19:31.809Z,13.60
2022-11-25T17:21:58.468Z,26.38
2022-11-25T17:24:25.464Z,33.83
2022-11-25T17:27:04.979Z,30.77
2022-11-25T17:29:41.862Z,19.00
2022-11-25T17:32:12.701Z,22.90
2022-11-25T17:34:39.744Z,20.52
2022-11-25T17:37:24.029Z,13.93
2022-11-25T17:39:55.745Z,24.63
2022-11-25T17:42:28.581Z,18.80
2022-11-25T17:44:55.269Z,20.35
2022-11-25T17:47:21.859Z,21.20
2022-11-25T17:49:49.526Z,18.65
2022-11-25T17:52:16.143Z,17.48
2022-11-25T17:54:42.770Z,21.10
2022-11-25T17:57:19.822Z,16.00
2022-11-25T17:59:48.740Z,32.90
2022-11-25T18:02:20.980Z,32.95
2022-11-25T18:07:16.654Z,32.55
2022-11-25T18:09:44.451Z,54.33
2022-11-25T18:12:18.504Z,79.65
2022-11-25T18:14:46.232Z,93.32
2022-11-25T18:17:16.612Z,94.70
2022-11-25T18:19:52.905Z,87.18
2022-11-25T18:22:21.549Z,67.50
2022-11-25T18:24:48.200Z,64.50
2022-11-25T18:27:24.899Z,57.25
2022-11-25T18:29:52.299Z,50.60
2022-11-25T18:32:19.600Z,61.85
2022-11-25T18:34:48.456Z,36.75
2022-11-25T18:37:14.943Z,33.90
2022-11-25T18:39:41.971Z,27.92
2022-11-25T18:42:20.928Z,20.08
2022-11-25T18:44:48.217Z,17.63
2022-11-25T18:47:14.686Z,16.48
2022-11-25T18:49:41.085Z,12.23
2022-11-25T18:52:07.518Z,23.38
2022-11-25T18:54:35.239Z,26.27
2022-11-25T18:57:04.880Z,21.13
2022-11-25T18:59:37.206Z,18.70
2022-11-25T19:04:30.475Z,37.40
2022-11-25T19:06:56.837Z,31.15
2022-11-25T19:09:23.188Z,23.88
2022-11-25T19:11:52.355Z,25.08
2022-11-25T19:14:32.934Z,18.75
2022-11-25T19:17:06.468Z,24.08
2022-11-25T19:19:33.234Z,43.33
2022-11-25T19:22:01.379Z,21.38
2022-11-25T19:24:30.691Z,26.35
2022-11-25T19:26:57.583Z,25.75
2022-11-25T19:29:32.255Z,17.10
2022-11-25T19:32:01.927Z,30.70
2022-11-25T19:34:43.925Z,20.33
2022-11-25T19:37:20.340Z,24.83
2022-11-25T19:39:51.254Z,15.55
2022-11-25T19:42:17.911Z,18.95
2022-11-25T19:44:48.160Z,10.52
2022-11-25T19:47:25.757Z,12.45
2022-11-25T19:50:02.727Z,23.20
2022-11-25T19:52:34.960Z,16.88
2022-11-25T19:55:25.570Z,14.05
2022-11-25T19:57:54.819Z,13.60
2022-11-25T20:00:23.546Z,12.48
2022-11-25T20:02:55.987Z,11.98
2022-11-25T20:05:29.426Z,24.05
2022-11-25T20:07:55.841Z,16.60
2022-11-25T20:10:32.083Z,26.88
2022-11-25T20:12:59.553Z,20.40
2022-11-25T20:15:26.801Z,16.50
2022-11-25T20:18:01.947Z,21.52
2022-11-25T20:20:34.916Z,21.23
2022-11-25T20:23:20.147Z,24.85
2022-11-25T20:25:48.762Z,14.40
2022-11-25T20:28:25.034Z,22.05
2022-11-25T20:30:53.000Z,23.38
2022-11-25T20:33:24.337Z,13.73
2022-11-25T20:35:54.629Z,20.25
2022-11-25T20:38:27.247Z,16.02
2022-11-25T20:40:58.708Z,16.42
2022-11-25T20:43:38.653Z,18.93
2022-11-25T20:46:11.929Z,17.92
2022-11-25T20:48:38.542Z,11.75
2022-11-25T20:51:12.892Z,18.25
2022-11-25T20:53:43.720Z,15.73
2022-11-25T20:56:14.678Z,17.48
2022-11-25T20:58:45.693Z,15.10
2022-11-25T21:01:14.419Z,20.00
2022-11-25T21:03:42.566Z,18.17
2022-11-25T21:06:30.222Z,15.20
2022-11-25T21:08:58.886Z,21.27
2022-11-25T21:11:28.224Z,15.63
2022-11-25T21:13:55.110Z,18.33
2022-11-25T21:16:21.741Z,18.02
2022-11-25T21:18:48.175Z,21.67
2022-11-25T21:21:18.216Z,15.00
2022-11-25T21:23:47.035Z,34.03
2022-11-25T21:26:24.832Z,25.67
2022-11-25T21:28:53.001Z,12.52
2022-11-25T21:31:24.697Z,16.00
2022-11-25T21:33:57.784Z,15.85
2022-11-25T21:36:29.078Z,31.63
2022-11-25T21:39:19.558Z,31.05
2022-11-25T21:41:46.017Z,19.40
2022-11-25T21:44:24.147Z,20.02
2022-11-25T21:46:52.317Z,24.38
2022-11-25T21:49:18.788Z,28.75
2022-11-25T21:51:45.530Z,15.48
2022-11-25T21:54:14.476Z,19.35
2022-11-25T21:56:40.966Z,19.25
2022-11-25T21:59:08.176Z,23.73
2022-11-25T22:01:34.585Z,28.90
2022-11-25T22:04:03.477Z,17.70
2022-11-25T22:06:31.830Z,12.95
2022-11-25T22:08:58.277Z,16.90
2022-11-25T22:11:30.593Z,14.35
2022-11-25T22:16:32.729Z,18.42
2022-11-25T22:18:59.933Z,23.08
2022-11-25T22:21:26.476Z,11.63
2022-11-25T22:23:52.891Z,13.43
2022-11-25T22:26:33.982Z,25.65
2022-11-25T22:29:02.272Z,18.65
2022-11-25T22:31:31.378Z,17.05
2022-11-25T22:33:57.889Z,9.18
2022-11-25T22:36:30.344Z,22.05
2022-11-25T22:41:24.992Z,18.35
2022-11-25T22:43:52.549Z,16.63
2022-11-25T22:46:19.366Z,21.13
2022-11-25T22:48:46.471Z,12.60
2022-11-25T22:51:17.295Z,19.67
2022-11-25T22:53:43.780Z,21.90
2022-11-25T22:56:17.994Z,10.20
2022-11-25T22:58:44.946Z,20.65
2022-11-25T23:01:19.477Z,19.63
2022-11-25T23:03:51.888Z,15.52
2022-11-25T23:08:44.679Z,15.77
2022-11-25T23:11:17.800Z,12.57
2022-11-25T23:13:48.645Z,12.55
2022-11-25T23:16:15.770Z,10.75
2022-11-25T23:18:45.876Z,11.70
2022-11-25T23:21:29.004Z,11.30
2022-11-25T23:23:58.217Z,18.90
2022-11-25T23:26:28.826Z,13.15
2022-11-25T23:28:58.622Z,27.52
2022-11-25T23:31:27.577Z,11.30
2022-11-25T23:33:54.024Z,10.23
2022-11-25T23:36:42.228Z,12.75
2022-11-25T23:39:17.796Z,16.85
2022-11-25T23:41:44.365Z,17.65
2022-11-25T23:44:17.424Z,9.50
2022-11-25T23:46:44.657Z,12.15
2022-11-25T23:49:27.894Z,9.48
2022-11-25T23:52:04.637Z,18.23
2022-11-25T23:54:42.425Z,16.15
2022-11-25T23:57:32.804Z,18.38
